map of ORG home
ORG - Airport
Location
City:  Paramaribo, Paramaribo, Suriname
Name:Zorg en Hoop
ICAO:SMZO
IATA:ORG

Details
Type:Airport (Aerodrome, Airfield)
Latitude:548'40"N (5.811083)
Longitude:5511'27"W (-55.190743)
Datum:WGS 1984
Elevation:10 ft (3 m)
Variation:17.54W (WMM2015 magnetic declination)
-0.04 annual change
Runways:unknown number
Longest:2133 ft (650 m)

Time
Time Zone:UTC-3
Local Time:

Weather
METAR:SMZO 141835Z 10002KT 9000 -TSRA SCT006 SCT015CB BKN018 26/25 Q1008 NOSIG

Related Locations
Nearby:
Farthest:TQQ: 12389 mi / 19938 km
Tomia (Pulau Tomea) [Maranggo Airport], Wakatobi Island, SG, ID

Find:

   beyond  
but within

Other Information
Maps:
NOTAMs:
Links:
Sources:

  
  • flag of Suriname
  

Sectional Chart

Flight Planning
at skyvector.com

Satellite Image

Google Maps Satellite view

 

Copyright © 2004-2018 Karl L. Swartz. All rights reserved.
The Great Circle Mapper name and logo are trademarks of the Great Circle Mapper.
All other trademarks mentioned herein belong to their respective owners.
Please see credits for attibutions and further copyright information.

  Follow gcmap on Facebook Follow gcmap on Twitter Follow gcmap on Google+ GCmap on LinkedIn

hCard Microformat

Geo Microformat